Hovedside
METAR-TAF:

METAR-TAF

Lufthavner :

Kuressaare, Estland

Kuressaare lufthavn

breddegrad: 58-13-48N, lengdegrad: 022-30-34E, høyde over havet: 4 m

Gjeldene værobservasjon

Denne rapporten ble laget for 43 minutter siden, klokken 09:50 UTC
Vind 14 kt fra Vest-sørvest, skiftende mellom Sørvest og Vest
Temperatur 16°C
Luftfuktighet 68%
Trykk 1000 hPa
Sikt 10 km eller mer
Få skyer i en høyde av 2500 ft
Brutte skyer i en høyde av 2900 ft

METAR: EEKE 250950Z AUTO 25014KT 220V280 9999NDV FEW025 BKN029 16/10 Q1000

Tid: 13:33 (10:33 UTC)


TAF: fraværende

Værobservasjoner og værvarsel for over 4000 flyplasser (METAR- og TAF-rapporter).

Tilgjengelige stasjoner er representert av de røde og gule prikkene på kartet.

Hold musepekeren over prikken for å se navnet på stasjonen.

Klikk så for å se værobservasjoner og -varsler.

For å forandre kartet kan du klikke på den grønne knappen med svart kryss for å zoome inn, på den grønne knappen med strek for å zoome ut, eller på de grønne pilene for å se tilstøtende kart.


METAR-TAF: